createdAt,value
2023-06-29T00:00:32.761Z,64.10
2023-06-29T00:03:35.419Z,64.44
2023-06-29T00:06:38.422Z,64.35
2023-06-29T00:09:40.900Z,64.58
2023-06-29T00:12:43.286Z,64.77
2023-06-29T00:15:46.332Z,64.21
2023-06-29T00:18:50.748Z,63.37
2023-06-29T00:21:54.001Z,63.88
2023-06-29T00:24:57.317Z,63.50
2023-06-29T00:28:00.190Z,62.20
2023-06-29T00:31:02.913Z,62.58
2023-06-29T00:34:05.398Z,62.34
2023-06-29T00:37:08.977Z,62.15
2023-06-29T00:40:12.394Z,62.16
2023-06-29T00:43:15.012Z,61.98
2023-06-29T00:46:21.429Z,62.03
2023-06-29T00:49:24.127Z,62.13
2023-06-29T00:52:28.086Z,62.07
2023-06-29T00:55:31.101Z,62.04
2023-06-29T00:58:34.462Z,62.30
2023-06-29T01:01:39.193Z,62.37
2023-06-29T01:04:42.744Z,62.14
2023-06-29T01:07:52.996Z,62.29
2023-06-29T01:10:56.503Z,62.21
2023-06-29T01:14:02.173Z,62.01
2023-06-29T01:17:05.497Z,62.23
2023-06-29T01:20:12.984Z,61.43
2023-06-29T01:23:22.517Z,61.11
2023-06-29T01:26:25.018Z,60.99
2023-06-29T01:29:27.732Z,60.59
2023-06-29T01:32:35.349Z,60.73
2023-06-29T01:35:38.441Z,61.04
2023-06-29T01:38:48.962Z,61.11
2023-06-29T01:41:53.564Z,61.09
2023-06-29T01:44:57.400Z,61.51
2023-06-29T01:48:01.625Z,62.14
2023-06-29T01:51:04.962Z,62.16
2023-06-29T01:54:07.398Z,62.52
2023-06-29T01:57:10.243Z,62.73
2023-06-29T02:00:13.656Z,62.73
2023-06-29T02:03:19.189Z,62.93
2023-06-29T02:06:21.740Z,63.30
2023-06-29T02:09:24.337Z,63.89
2023-06-29T02:12:26.870Z,64.27
2023-06-29T02:15:29.336Z,64.14
2023-06-29T02:18:38.790Z,64.57
2023-06-29T02:21:42.854Z,64.17
2023-06-29T02:24:46.897Z,63.42
2023-06-29T02:27:49.435Z,61.99
2023-06-29T02:30:51.998Z,61.22
2023-06-29T02:33:55.007Z,60.32
2023-06-29T02:36:58.198Z,60.08
2023-06-29T02:40:02.159Z,60.72
2023-06-29T02:43:04.715Z,60.22
2023-06-29T02:46:07.792Z,60.13
2023-06-29T02:49:13.575Z,61.70
2023-06-29T02:52:16.972Z,61.71
2023-06-29T02:55:23.405Z,61.93
2023-06-29T02:58:25.908Z,62.33
2023-06-29T03:01:29.089Z,61.65
2023-06-29T03:04:32.950Z,61.94
2023-06-29T03:07:36.673Z,62.25
2023-06-29T03:10:39.247Z,62.01
2023-06-29T03:13:41.793Z,61.66
2023-06-29T03:16:44.248Z,60.92
2023-06-29T03:19:48.647Z,60.42
2023-06-29T03:22:51.102Z,59.47
2023-06-29T03:25:53.584Z,59.32
2023-06-29T03:28:56.050Z,59.47
2023-06-29T03:32:00.863Z,58.56
2023-06-29T03:35:04.949Z,58.99
2023-06-29T03:38:09.597Z,58.56
2023-06-29T03:41:12.001Z,58.42
2023-06-29T03:44:14.453Z,58.28
2023-06-29T03:47:16.908Z,58.51
2023-06-29T03:50:19.428Z,58.88
2023-06-29T03:53:21.968Z,58.72
2023-06-29T03:56:24.424Z,58.27
2023-06-29T03:59:26.925Z,57.94
2023-06-29T04:02:29.594Z,57.24
2023-06-29T04:05:32.500Z,56.77
2023-06-29T04:08:35.045Z,56.88
2023-06-29T04:11:37.502Z,56.92
2023-06-29T04:14:39.991Z,57.72
2023-06-29T04:17:42.952Z,58.05
2023-06-29T04:20:45.491Z,58.35
2023-06-29T04:23:48.006Z,58.93
2023-06-29T04:26:50.780Z,58.70
2023-06-29T04:29:53.305Z,58.98
2023-06-29T04:32:57.470Z,58.75
2023-06-29T04:35:59.968Z,58.72
2023-06-29T04:39:02.356Z,57.50
2023-06-29T04:42:06.305Z,56.90
2023-06-29T04:45:09.318Z,57.08
2023-06-29T04:48:11.799Z,56.71
2023-06-29T04:51:14.543Z,57.37
2023-06-29T04:54:17.071Z,56.80
2023-06-29T04:57:19.545Z,56.46
2023-06-29T05:00:22.062Z,56.91
2023-06-29T05:03:25.860Z,57.04
2023-06-29T05:06:28.648Z,56.61
2023-06-29T05:09:31.113Z,56.55
2023-06-29T05:12:33.578Z,56.64
2023-06-29T05:15:36.055Z,56.24
2023-06-29T05:18:38.555Z,55.72
2023-06-29T05:21:41.293Z,55.35
2023-06-29T05:24:43.882Z,55.49
2023-06-29T05:27:46.688Z,55.02
2023-06-29T05:30:49.274Z,55.21
2023-06-29T05:33:51.784Z,54.89
2023-06-29T05:36:54.560Z,54.96
2023-06-29T05:39:58.078Z,54.01
2023-06-29T05:43:00.941Z,54.26
2023-06-29T05:46:04.049Z,54.23
2023-06-29T05:49:06.892Z,53.58
2023-06-29T05:52:09.318Z,53.68
2023-06-29T05:55:11.795Z,53.05
2023-06-29T05:58:14.870Z,53.69
2023-06-29T06:01:17.422Z,52.93
2023-06-29T06:04:20.175Z,53.08
2023-06-29T06:07:33.421Z,52.79
2023-06-29T06:10:37.149Z,51.53
2023-06-29T06:13:40.078Z,50.30
2023-06-29T06:16:42.686Z,50.23
2023-06-29T06:19:45.651Z,51.40
2023-06-29T06:22:48.166Z,51.51
2023-06-29T06:25:51.255Z,52.02
2023-06-29T06:28:53.651Z,52.02
2023-06-29T06:31:56.730Z,51.79
2023-06-29T06:34:59.291Z,51.95
2023-06-29T06:38:02.996Z,51.52
2023-06-29T06:41:05.553Z,50.88
2023-06-29T06:44:08.259Z,50.22
2023-06-29T06:47:10.745Z,50.46
2023-06-29T06:50:14.071Z,48.68
2023-06-29T06:53:17.885Z,49.27
2023-06-29T06:56:22.876Z,50.04
2023-06-29T06:59:25.706Z,49.68
2023-06-29T07:02:28.213Z,48.92
2023-06-29T07:05:31.121Z,49.17
2023-06-29T07:08:34.776Z,49.89
2023-06-29T07:11:38.755Z,48.88
2023-06-29T07:14:41.368Z,48.01
2023-06-29T07:17:44.166Z,47.47
2023-06-29T07:26:58.051Z,48.06
2023-06-29T07:30:00.511Z,48.31
2023-06-29T07:33:03.076Z,48.39
2023-06-29T07:36:06.251Z,48.57
2023-06-29T07:39:08.823Z,49.66
2023-06-29T07:42:11.303Z,49.11
2023-06-29T07:45:14.786Z,49.53
2023-06-29T07:48:18.416Z,49.04
2023-06-29T07:51:22.897Z,48.79
2023-06-29T07:54:25.397Z,49.24
2023-06-29T08:00:33.242Z,48.79
2023-06-29T08:03:47.338Z,48.20
2023-06-29T08:06:58.287Z,47.32
2023-06-29T08:10:00.909Z,47.51
2023-06-29T08:13:05.933Z,47.22
2023-06-29T08:16:08.846Z,46.12
2023-06-29T08:19:11.807Z,46.61
2023-06-29T08:22:14.482Z,46.29
2023-06-29T08:25:17.601Z,45.65
2023-06-29T08:28:20.096Z,45.42
2023-06-29T08:31:22.510Z,46.07
2023-06-29T08:34:25.412Z,46.39
2023-06-29T08:37:29.506Z,46.43
2023-06-29T08:40:35.417Z,45.12
2023-06-29T08:43:37.944Z,44.68
2023-06-29T08:46:43.011Z,43.64
2023-06-29T08:49:47.208Z,42.57
2023-06-29T08:52:50.310Z,41.43
2023-06-29T08:55:54.165Z,42.85
2023-06-29T08:58:57.438Z,42.96
2023-06-29T09:02:00.208Z,41.96
2023-06-29T09:05:04.035Z,41.44
2023-06-29T09:08:06.805Z,41.19
2023-06-29T09:11:09.399Z,41.84
2023-06-29T09:14:11.977Z,41.47
2023-06-29T09:17:19.059Z,42.26
2023-06-29T09:20:22.676Z,40.29
2023-06-29T09:23:30.008Z,40.47
2023-06-29T09:26:32.893Z,39.46
2023-06-29T09:29:40.107Z,40.61
2023-06-29T09:32:42.869Z,41.39
2023-06-29T09:35:51.576Z,41.30
2023-06-29T09:38:55.594Z,41.58
2023-06-29T09:41:58.159Z,41.23
2023-06-29T09:45:02.480Z,39.44
2023-06-29T09:51:10.741Z,38.45
2023-06-29T09:54:14.870Z,39.22
2023-06-29T09:57:19.631Z,39.00
2023-06-29T10:00:22.386Z,38.49
2023-06-29T10:03:27.950Z,40.49
2023-06-29T10:06:39.548Z,39.64
2023-06-29T10:09:46.771Z,37.31
2023-06-29T10:12:54.708Z,37.22
2023-06-29T10:16:01.236Z,37.19
2023-06-29T10:19:21.684Z,37.52
2023-06-29T10:22:27.091Z,37.10
2023-06-29T10:25:31.604Z,37.25
2023-06-29T10:28:35.659Z,37.53
2023-06-29T10:31:38.958Z,38.14
2023-06-29T10:35:01.360Z,36.22
2023-06-29T10:38:12.514Z,34.93
2023-06-29T10:41:29.133Z,34.55
2023-06-29T10:44:35.202Z,36.55
2023-06-29T10:47:41.065Z,36.42
2023-06-29T10:50:48.400Z,36.82
2023-06-29T10:53:50.998Z,31.51
2023-06-29T10:57:03.730Z,30.64
2023-06-29T11:00:06.803Z,31.28
2023-06-29T11:03:11.585Z,28.21
2023-06-29T11:06:23.964Z,27.78
2023-06-29T11:09:31.752Z,25.36
2023-06-29T11:12:34.374Z,24.13
2023-06-29T11:15:37.863Z,23.23
2023-06-29T11:18:48.736Z,22.21
2023-06-29T11:21:55.158Z,21.29
2023-06-29T11:24:57.623Z,20.29
2023-06-29T11:28:00.360Z,19.96
2023-06-29T11:31:03.589Z,20.06
2023-06-29T11:34:06.180Z,18.52
2023-06-29T11:37:15.828Z,18.38
2023-06-29T11:40:23.108Z,19.84
2023-06-29T11:46:33.470Z,21.08
2023-06-29T11:49:36.026Z,21.38
2023-06-29T11:52:40.858Z,21.14
2023-06-29T11:55:54.669Z,20.41
2023-06-29T11:58:57.254Z,19.88
2023-06-29T12:02:00.810Z,19.24
2023-06-29T12:05:05.522Z,17.86
2023-06-29T12:08:10.387Z,21.53
2023-06-29T12:11:16.889Z,18.85
2023-06-29T12:14:19.576Z,18.16
2023-06-29T12:20:29.530Z,21.27
2023-06-29T12:23:32.063Z,22.00
2023-06-29T12:26:34.565Z,25.13
2023-06-29T12:29:38.352Z,26.81
2023-06-29T12:32:46.369Z,19.98
2023-06-29T12:35:49.240Z,18.64
2023-06-29T12:38:52.450Z,16.57
2023-06-29T12:41:56.652Z,16.83
2023-06-29T12:45:00.037Z,18.70
2023-06-29T12:48:04.766Z,18.71
2023-06-29T12:51:07.838Z,16.92
2023-06-29T12:54:10.898Z,15.49
2023-06-29T12:57:16.217Z,15.35
2023-06-29T13:00:23.091Z,14.97
2023-06-29T13:03:25.702Z,14.53
2023-06-29T13:06:28.292Z,15.63
2023-06-29T13:09:31.465Z,14.63
2023-06-29T13:12:34.010Z,14.61
2023-06-29T13:15:36.553Z,16.77
2023-06-29T13:18:39.147Z,16.34
2023-06-29T13:21:41.806Z,16.59
2023-06-29T13:24:44.657Z,16.25
2023-06-29T13:27:49.310Z,16.59
2023-06-29T13:30:51.792Z,16.24
2023-06-29T13:33:55.324Z,15.46
2023-06-29T13:36:57.968Z,13.71
2023-06-29T13:40:00.660Z,13.00
2023-06-29T13:43:03.398Z,18.04
2023-06-29T13:46:05.854Z,21.27
2023-06-29T13:49:09.189Z,23.05
2023-06-29T13:52:11.943Z,24.37
2023-06-29T13:55:14.421Z,24.68
2023-06-29T13:58:16.967Z,24.65
2023-06-29T14:01:19.700Z,21.80
2023-06-29T14:04:23.282Z,20.05
2023-06-29T14:07:27.122Z,23.71
2023-06-29T14:10:29.652Z,23.16
2023-06-29T14:13:33.026Z,20.86
2023-06-29T14:16:36.418Z,17.23
2023-06-29T14:19:39.126Z,15.45
2023-06-29T14:22:41.584Z,14.12
2023-06-29T14:25:44.448Z,15.05
2023-06-29T14:28:47.110Z,14.21
2023-06-29T14:31:49.645Z,14.91
2023-06-29T14:34:52.411Z,14.66
2023-06-29T14:38:13.502Z,15.46
2023-06-29T14:41:17.095Z,20.14
2023-06-29T14:44:19.868Z,20.39
2023-06-29T14:47:22.312Z,17.17
2023-06-29T14:50:24.774Z,17.61
2023-06-29T14:53:27.281Z,16.76
2023-06-29T14:56:29.972Z,15.55
2023-06-29T14:59:32.529Z,14.05
2023-06-29T15:02:35.113Z,15.26
2023-06-29T15:05:37.614Z,14.54
2023-06-29T15:08:40.469Z,15.84
2023-06-29T15:11:42.980Z,16.27
2023-06-29T15:14:45.476Z,16.40
2023-06-29T15:17:48.980Z,18.21
2023-06-29T15:20:51.595Z,18.45
2023-06-29T15:23:54.063Z,17.17
2023-06-29T15:26:56.495Z,14.83
2023-06-29T15:30:02.633Z,15.69
2023-06-29T15:33:05.493Z,16.01
2023-06-29T15:36:08.533Z,15.96
2023-06-29T15:39:10.996Z,15.59
2023-06-29T15:42:14.168Z,15.33
2023-06-29T15:45:16.715Z,17.26
2023-06-29T15:48:19.329Z,15.61
2023-06-29T15:51:22.735Z,16.08
2023-06-29T15:54:25.236Z,15.44
2023-06-29T15:57:27.922Z,15.07
2023-06-29T16:00:30.950Z,15.35
2023-06-29T16:03:33.699Z,15.98
2023-06-29T16:06:36.381Z,16.17
2023-06-29T16:09:38.868Z,18.32
2023-06-29T16:12:41.304Z,18.97
2023-06-29T16:15:43.907Z,20.43
2023-06-29T16:18:46.781Z,19.27
2023-06-29T16:21:49.619Z,19.38
2023-06-29T16:24:52.167Z,20.26
2023-06-29T16:27:54.674Z,19.49
2023-06-29T16:30:57.249Z,19.49
2023-06-29T16:33:59.779Z,18.56
2023-06-29T16:37:02.467Z,18.24
2023-06-29T16:40:05.614Z,18.58
2023-06-29T16:43:08.157Z,18.56
2023-06-29T16:46:10.650Z,18.16
2023-06-29T16:49:13.102Z,18.88
2023-06-29T16:52:16.296Z,18.99
2023-06-29T16:55:18.797Z,19.16
2023-06-29T16:58:21.686Z,19.08
2023-06-29T17:01:24.834Z,21.11
2023-06-29T17:04:27.455Z,21.37
2023-06-29T17:07:30.331Z,20.99
2023-06-29T17:10:32.833Z,23.43
2023-06-29T17:13:35.583Z,25.57
2023-06-29T17:16:38.213Z,27.02
2023-06-29T17:19:40.919Z,28.97
2023-06-29T17:22:43.422Z,29.58
2023-06-29T17:25:51.061Z,31.48
2023-06-29T17:28:53.741Z,31.81
2023-06-29T17:31:56.287Z,31.94
2023-06-29T17:34:58.969Z,31.80
2023-06-29T17:38:01.458Z,32.98
2023-06-29T17:41:04.125Z,33.55
2023-06-29T17:44:06.712Z,33.27
2023-06-29T17:47:09.605Z,33.84
2023-06-29T17:50:12.172Z,33.79
2023-06-29T17:53:14.639Z,33.69
2023-06-29T17:56:17.167Z,33.68
2023-06-29T17:59:19.671Z,33.31
2023-06-29T18:02:22.478Z,33.26
2023-06-29T18:05:26.441Z,34.32
2023-06-29T18:08:28.923Z,35.90
2023-06-29T18:11:31.432Z,35.96
2023-06-29T18:14:33.935Z,36.46
2023-06-29T18:17:36.490Z,37.27
2023-06-29T18:20:39.019Z,37.98
2023-06-29T18:23:41.601Z,39.20
2023-06-29T18:26:44.184Z,39.89
2023-06-29T18:29:46.925Z,40.54
2023-06-29T18:32:49.465Z,41.63
2023-06-29T18:35:52.114Z,42.31
2023-06-29T18:38:54.648Z,42.59
2023-06-29T18:41:57.226Z,42.47
2023-06-29T18:44:59.749Z,42.81
2023-06-29T18:48:02.465Z,43.30
2023-06-29T18:51:04.967Z,43.55
2023-06-29T18:54:07.452Z,43.61
2023-06-29T18:57:11.548Z,43.91
2023-06-29T19:00:14.434Z,44.16
2023-06-29T19:03:17.082Z,44.76
2023-06-29T19:06:19.664Z,45.12
2023-06-29T19:09:22.671Z,45.88
2023-06-29T19:12:25.229Z,46.32
2023-06-29T19:15:27.729Z,47.40
2023-06-29T19:18:30.499Z,47.83
2023-06-29T19:21:46.984Z,47.65
2023-06-29T19:24:51.340Z,48.51
2023-06-29T19:27:53.873Z,48.80
2023-06-29T19:30:56.358Z,48.65
2023-06-29T19:34:00.422Z,48.96
2023-06-29T19:37:04.397Z,49.70
2023-06-29T19:40:07.849Z,49.95
2023-06-29T19:43:10.552Z,50.16
2023-06-29T19:46:13.128Z,50.62
2023-06-29T19:49:15.908Z,51.05
2023-06-29T19:52:19.934Z,50.52
2023-06-29T19:55:22.465Z,50.72
2023-06-29T19:58:25.634Z,50.54
2023-06-29T20:01:28.086Z,51.79
2023-06-29T20:04:30.732Z,51.71
2023-06-29T20:07:33.358Z,51.98
2023-06-29T20:10:35.913Z,52.12
2023-06-29T20:13:38.473Z,52.75
2023-06-29T20:16:41.048Z,53.16
2023-06-29T20:19:44.153Z,53.13
2023-06-29T20:22:46.726Z,53.43
2023-06-29T20:25:49.559Z,53.24
2023-06-29T20:28:52.634Z,53.32
2023-06-29T20:31:55.389Z,53.90
2023-06-29T20:34:57.923Z,53.95
2023-06-29T20:38:00.399Z,54.07
2023-06-29T20:41:02.920Z,54.50
2023-06-29T20:44:06.898Z,55.06
2023-06-29T20:47:09.336Z,54.89
2023-06-29T20:50:11.897Z,55.01
2023-06-29T20:53:15.360Z,55.36
2023-06-29T20:56:17.858Z,55.92
2023-06-29T20:59:20.505Z,56.32
2023-06-29T21:02:24.395Z,56.22
2023-06-29T21:05:27.454Z,56.75
2023-06-29T21:08:30.573Z,57.82
2023-06-29T21:11:33.291Z,57.97
2023-06-29T21:14:36.187Z,58.16
2023-06-29T21:17:39.069Z,58.47
2023-06-29T21:20:42.177Z,58.55
2023-06-29T21:23:45.045Z,59.08
2023-06-29T21:26:48.933Z,59.97
2023-06-29T21:29:51.559Z,60.07
2023-06-29T21:32:54.300Z,60.38
2023-06-29T21:35:57.366Z,61.35
2023-06-29T21:39:02.368Z,60.89
2023-06-29T21:42:05.426Z,61.99
2023-06-29T21:45:08.508Z,61.86
2023-06-29T21:48:11.164Z,62.37
2023-06-29T21:51:13.709Z,62.31
2023-06-29T21:54:16.253Z,62.53
2023-06-29T21:57:18.776Z,63.17
2023-06-29T22:00:21.290Z,62.77
2023-06-29T22:03:23.851Z,62.75
2023-06-29T22:06:29.428Z,62.93
2023-06-29T22:09:32.693Z,63.55
2023-06-29T22:12:43.164Z,63.65
2023-06-29T22:15:46.761Z,63.74
2023-06-29T22:18:52.669Z,63.74
2023-06-29T22:22:00.952Z,64.11
2023-06-29T22:25:03.515Z,64.12
2023-06-29T22:28:08.046Z,64.03
2023-06-29T22:31:11.126Z,64.62
2023-06-29T22:34:15.070Z,64.33
2023-06-29T22:37:17.634Z,64.67
2023-06-29T22:40:20.459Z,64.87
2023-06-29T22:43:22.883Z,66.77
2023-06-29T22:46:26.606Z,67.22
2023-06-29T22:49:29.171Z,67.80
2023-06-29T22:52:31.701Z,67.90
2023-06-29T22:55:34.664Z,67.63
2023-06-29T22:58:37.579Z,70.73
2023-06-29T23:01:40.775Z,71.68
2023-06-29T23:04:44.297Z,71.67
2023-06-29T23:07:47.730Z,71.17
2023-06-29T23:10:50.402Z,70.15
2023-06-29T23:13:56.980Z,70.41
2023-06-29T23:17:03.948Z,70.04
2023-06-29T23:20:12.176Z,70.00
2023-06-29T23:23:15.045Z,69.76
2023-06-29T23:26:20.382Z,69.82
2023-06-29T23:29:22.902Z,69.73
2023-06-29T23:32:25.396Z,69.89
2023-06-29T23:35:27.883Z,69.67
2023-06-29T23:38:30.300Z,70.53
2023-06-29T23:41:34.879Z,70.27
2023-06-29T23:44:41.862Z,70.97
2023-06-29T23:47:44.597Z,71.62
2023-06-29T23:50:48.491Z,71.50
2023-06-29T23:53:50.957Z,71.30
2023-06-29T23:56:53.570Z,71.64
2023-06-29T23:59:56.135Z,71.59
